SBEGSBPV

Guest
Details From SBEG - Eduardo Gomes
To SBPV - Governador Jorge Teixeira De Oliveira
Flight Number -
Tags decoded
Created
Modified
Stats Distance 411 nm / 761 km
Max Altitude 0 ft / 0 m
Waypoints 3
Social Downloads 0
Likes 0
Share VATSIM

Download

Looking for another format? Having issues loading an existing format? Contact us
Advertisement - Login to hide

Notes

Requested: SBEG AKVIT UW3 MUPEG SBPV Unmatched points: AKVIT UW3

Route

SBEG MUPEG SBPV

ID Type Via Altitude Latitude Longitude Leg Dist Tot Dist Heading (true) Name
O SBEG APT - 0 ft / 0 m -3.03861˚ -60.04972˚ - 0 nm - Eduardo Gomes
MUPEG FIX - 0 ft / 0 m -8.25875˚ -63.59625˚ 378 nm 378 nm 214° / 214° -
O SBPV APT - 0 ft / 0 m -8.70929˚ -63.90228˚ 32 nm 410 nm 214° / 214° Governador Jorge Teixeira De Oliveira

Altitude Profile

Advertisement - Login to hide

Weather


0- 5 10 15 20 25 30 35+ Temperature / ° C

Clouds and Precipitation
Forecast for 2018-05-24 12:00 UTC. Updated an hour ago

Ground ~20,000 ft ~40,000 ft Winds

SBEG

Details ICAO SBEG (MAO)
Name Eduardo Gomes
Region Brazil
Timezone America/Manaus (UTC-4.0)
Stats Elevation 264 ft / 80 m (AMSL)
Location -3.038611° -60.049723°
Runways 1
Magnetic Variation 15.813° W

METAR

SBEG 241200Z 12003KT 9999 FEW008 BKN100 25/23 Q1015

Decode

TAF

TAF SBEG 241000Z 2412/2512 10005KT 9999 SCT015 TX31/2418Z TN24/2507Z BECMG 2414/2416 06005KT SCT020 FEW025TCU PROB30 TEMPO 2416/2420 8000 TSRA SCT020 FEW025CB BECMG 2422/2424 00000KT FEW015 RMK PCQ

Decode

Departure Runways

ID Width Length Bearing (true) Bearing (mag) Surface Threshold Offset Overrun Length
10 148 ft / 45 m 8,867 ft / 2,703 m 90.13° 105.94° Asphalt 0 ft / 0 m 215 ft / 66 m
28 148 ft / 45 m 8,867 ft / 2,703 m 270.13° 285.94° Asphalt 0 ft / 0 m 250 ft / 76 m

SBPV

Details ICAO SBPV (PVH)
Name Governador Jorge Teixeira De Oliveira
Region Brazil
Timezone America/Porto_Velho (UTC-4.0)
Stats Elevation 290 ft / 88 m (AMSL)
Location -8.709293° -63.902279°
Runways 1
Magnetic Variation 12.963° W

METAR

SBPV 241200Z 18012KT CAVOK 26/20 Q1016

Decode

TAF

Not found

Destination Runways

ID Width Length Bearing (true) Bearing (mag) Surface Threshold Offset Overrun Length
01 148 ft / 45 m 7,919 ft / 2,414 m 356.64° 9.60° Asphalt 0 ft / 0 m 200 ft / 61 m
19 148 ft / 45 m 7,919 ft / 2,414 m 176.64° 189.60° Asphalt 0 ft / 0 m 200 ft / 61 m

Approach Navaids

Runway Type Ident Frequency Range Bearing (true) Bearing (mag) Slope Elevation
19 Localiser IPV 109.30 MHz 18 nm / 33 km 179.71° 192.67° - 290 ft / 88 m (AMSL)
19 Glidescope IPV 109.30 MHz 10 nm / 19 km 176.64° 189.61° 3.00° 290 ft / 88 m (AMSL)

Popular Alternatives